createdAt,value
2022-10-05T00:00:23.986Z,100.00
2022-10-05T00:15:23.656Z,100.00
2022-10-05T00:30:23.504Z,100.00
2022-10-05T00:45:23.441Z,100.00
2022-10-05T01:00:24.323Z,100.00
2022-10-05T01:15:23.726Z,100.00
2022-10-05T01:30:24.411Z,100.00
2022-10-05T01:45:24.037Z,100.00
2022-10-05T02:00:24.079Z,100.00
2022-10-05T02:15:23.920Z,100.00
2022-10-05T02:30:25.924Z,100.00
2022-10-05T02:45:33.179Z,100.00
2022-10-05T03:00:32.988Z,100.00
2022-10-05T03:15:23.325Z,100.00
2022-10-05T03:30:24.415Z,100.00
2022-10-05T03:45:23.075Z,100.00
2022-10-05T04:00:27.819Z,100.00
2022-10-05T04:15:23.292Z,100.00
2022-10-05T04:30:23.323Z,100.00
2022-10-05T04:45:23.244Z,100.00
2022-10-05T05:00:29.590Z,100.00
2022-10-05T05:15:23.461Z,100.00
2022-10-05T05:30:27.483Z,100.00
2022-10-05T05:45:23.607Z,100.00
2022-10-05T06:00:35.492Z,100.00
2022-10-05T06:15:23.462Z,100.00
2022-10-05T06:30:24.313Z,100.00
2022-10-05T06:45:23.597Z,100.00
2022-10-05T07:00:32.327Z,100.00
2022-10-05T07:15:23.798Z,100.00
2022-10-05T07:30:23.855Z,100.00
2022-10-05T07:45:23.886Z,100.00
2022-10-05T08:00:27.029Z,100.00
2022-10-05T08:15:23.926Z,100.00
2022-10-05T08:30:33.000Z,100.00
2022-10-05T08:45:33.850Z,100.00
2022-10-05T09:00:38.674Z,100.00
2022-10-05T09:15:26.218Z,100.00
2022-10-05T09:30:23.958Z,100.00
2022-10-05T09:45:23.264Z,100.00
2022-10-05T10:00:24.832Z,100.00
2022-10-05T10:15:23.386Z,100.00
2022-10-05T10:30:27.649Z,100.00
2022-10-05T10:45:23.222Z,100.00
2022-10-05T11:00:38.375Z,100.00
2022-10-05T11:15:23.507Z,100.00
2022-10-05T11:30:25.921Z,100.00
2022-10-05T11:45:23.491Z,100.00
2022-10-05T12:00:26.809Z,100.00
2022-10-05T12:15:24.010Z,100.00
2022-10-05T12:30:23.814Z,100.00
2022-10-05T12:45:23.862Z,100.00
2022-10-05T13:00:31.997Z,100.00
2022-10-05T13:15:23.988Z,100.00
2022-10-05T13:30:26.339Z,91.77
2022-10-05T13:45:33.312Z,75.67
2022-10-05T14:00:33.417Z,65.40
2022-10-05T14:15:23.081Z,62.27
2022-10-05T14:30:23.376Z,56.37
2022-10-05T14:45:23.213Z,61.40
2022-10-05T15:00:30.360Z,58.23
2022-10-05T15:15:23.306Z,58.40
2022-10-05T15:30:25.458Z,55.53
2022-10-05T15:45:23.269Z,56.07
2022-10-05T16:00:24.742Z,59.90
2022-10-05T16:15:23.456Z,76.40
2022-10-05T16:30:23.548Z,100.00
2022-10-05T16:45:23.343Z,100.00
2022-10-05T17:00:24.719Z,100.00
2022-10-05T17:15:23.555Z,100.00
2022-10-05T17:30:23.626Z,100.00
2022-10-05T17:45:23.732Z,100.00
2022-10-05T18:00:26.168Z,100.00
2022-10-05T18:15:23.603Z,100.00
2022-10-05T18:30:25.666Z,100.00
2022-10-05T18:45:24.548Z,100.00
2022-10-05T19:00:33.040Z,100.00
2022-10-05T19:15:23.902Z,100.00
2022-10-05T19:30:32.988Z,100.00
2022-10-05T19:45:32.847Z,100.00
2022-10-05T20:00:38.343Z,100.00
2022-10-05T20:15:23.204Z,100.00
2022-10-05T20:30:23.179Z,100.00
2022-10-05T20:45:23.426Z,100.00
2022-10-05T21:00:28.935Z,100.00
2022-10-05T21:15:23.241Z,100.00
2022-10-05T21:30:23.455Z,100.00
2022-10-05T21:45:23.737Z,100.00
2022-10-05T22:15:23.491Z,100.00
2022-10-05T22:30:23.502Z,100.00
2022-10-05T22:45:23.872Z,100.00
2022-10-05T23:00:35.159Z,100.00
2022-10-05T23:15:23.957Z,100.00
2022-10-05T23:30:23.756Z,100.00
2022-10-05T23:45:23.930Z,100.00
